sensor_id;sensor_type;location;lat;lon;timestamp;pressure;altitude;pressure_sealevel;temperature;humidity
41898;BME280;27576;53.366;-1.498;2023-05-08T00:00:27;100457.63;;;14.70;100.00
41898;BME280;27576;53.366;-1.498;2023-05-08T00:02:53;100448.91;;;14.62;100.00
41898;BME280;27576;53.366;-1.498;2023-05-08T00:05:18;100410.72;;;14.42;100.00
41898;BME280;27576;53.366;-1.498;2023-05-08T00:07:43;100402.94;;;14.32;100.00
41898;BME280;27576;53.366;-1.498;2023-05-08T00:10:09;100458.50;;;14.63;100.00
41898;BME280;27576;53.366;-1.498;2023-05-08T00:12:35;100456.75;;;14.62;100.00
41898;BME280;27576;53.366;-1.498;2023-05-08T00:15:03;100448.94;;;14.57;100.00
41898;BME280;27576;53.366;-1.498;2023-05-08T00:17:28;100456.78;;;14.49;100.00
41898;BME280;27576;53.366;-1.498;2023-05-08T00:19:55;100460.25;;;14.53;100.00
41898;BME280;27576;53.366;-1.498;2023-05-08T00:22:20;100439.41;;;14.44;100.00
41898;BME280;27576;53.366;-1.498;2023-05-08T00:24:46;100415.94;;;14.30;100.00
41898;BME280;27576;53.366;-1.498;2023-05-08T00:27:11;100446.34;;;14.43;100.00
41898;BME280;27576;53.366;-1.498;2023-05-08T00:29:37;100435.94;;;14.39;100.00
41898;BME280;27576;53.366;-1.498;2023-05-08T00:32:05;100437.66;;;14.44;100.00
41898;BME280;27576;53.366;-1.498;2023-05-08T00:34:30;100442.88;;;14.43;100.00
41898;BME280;27576;53.366;-1.498;2023-05-08T00:36:55;100441.13;;;14.40;100.00
41898;BME280;27576;53.366;-1.498;2023-05-08T00:39:21;100413.34;;;14.22;100.00
41898;BME280;27576;53.366;-1.498;2023-05-08T00:41:47;100413.38;;;14.21;100.00
41898;BME280;27576;53.366;-1.498;2023-05-08T00:44:12;100439.44;;;14.35;100.00
41898;BME280;27576;53.366;-1.498;2023-05-08T00:46:39;100448.09;;;14.35;100.00
41898;BME280;27576;53.366;-1.498;2023-05-08T00:49:05;100418.59;;;14.19;100.00
41898;BME280;27576;53.366;-1.498;2023-05-08T00:51:32;100416.88;;;14.12;100.00
41898;BME280;27576;53.366;-1.498;2023-05-08T00:53:58;100439.44;;;14.27;100.00
41898;BME280;27576;53.366;-1.498;2023-05-08T00:56:24;100415.13;;;14.14;100.00
41898;BME280;27576;53.366;-1.498;2023-05-08T00:58:52;100435.06;;;14.26;100.00
41898;BME280;27576;53.366;-1.498;2023-05-08T01:01:18;100423.78;;;14.22;100.00
41898;BME280;27576;53.366;-1.498;2023-05-08T01:03:43;100430.75;;;14.23;100.00
41898;BME280;27576;53.366;-1.498;2023-05-08T01:06:09;100418.59;;;14.16;100.00
41898;BME280;27576;53.366;-1.498;2023-05-08T01:08:34;100416.00;;;14.16;100.00
41898;BME280;27576;53.366;-1.498;2023-05-08T01:16:22;100418.59;;;14.10;100.00
41898;BME280;27576;53.366;-1.498;2023-05-08T01:21:45;100409.94;;;13.94;100.00
41898;BME280;27576;53.366;-1.498;2023-05-08T01:27:39;100425.56;;;14.04;100.00
41898;BME280;27576;53.366;-1.498;2023-05-08T01:30:22;100422.09;;;14.00;100.00
41898;BME280;27576;53.366;-1.498;2023-05-08T01:32:56;100424.72;;;13.95;100.00
41898;BME280;27576;53.366;-1.498;2023-05-08T01:35:31;100422.09;;;13.91;100.00
41898;BME280;27576;53.366;-1.498;2023-05-08T01:38:18;100421.22;;;13.89;100.00
41898;BME280;27576;53.366;-1.498;2023-05-08T01:40:55;100396.94;;;13.70;100.00
41898;BME280;27576;53.366;-1.498;2023-05-08T01:43:31;100408.22;;;13.77;100.00
41898;BME280;27576;53.366;-1.498;2023-05-08T01:46:03;100401.28;;;13.72;100.00
41898;BME280;27576;53.366;-1.498;2023-05-08T01:48:33;100393.47;;;13.60;100.00
41898;BME280;27576;53.366;-1.498;2023-05-08T01:51:11;100399.53;;;13.65;100.00
41898;BME280;27576;53.366;-1.498;2023-05-08T01:53:42;100411.69;;;13.65;100.00
41898;BME280;27576;53.366;-1.498;2023-05-08T01:56:13;100408.22;;;13.58;100.00
41898;BME280;27576;53.366;-1.498;2023-05-08T01:58:42;100410.84;;;13.60;100.00
41898;BME280;27576;53.366;-1.498;2023-05-08T02:01:09;100402.13;;;13.58;100.00
41898;BME280;27576;53.366;-1.498;2023-05-08T02:03:36;100409.06;;;13.59;100.00
41898;BME280;27576;53.366;-1.498;2023-05-08T02:06:04;100383.91;;;13.41;100.00
41898;BME280;27576;53.366;-1.498;2023-05-08T02:08:31;100382.16;;;13.40;100.00
41898;BME280;27576;53.366;-1.498;2023-05-08T02:10:59;100398.66;;;13.57;100.00
41898;BME280;27576;53.366;-1.498;2023-05-08T02:13:26;100368.28;;;13.38;100.00
41898;BME280;27576;53.366;-1.498;2023-05-08T02:15:53;100385.63;;;13.39;100.00
41898;BME280;27576;53.366;-1.498;2023-05-08T02:18:22;100397.78;;;13.46;100.00
41898;BME280;27576;53.366;-1.498;2023-05-08T02:20:50;100403.00;;;13.49;100.00
41898;BME280;27576;53.366;-1.498;2023-05-08T02:23:21;100391.72;;;13.41;100.00
41898;BME280;27576;53.366;-1.498;2023-05-08T02:25:49;100385.63;;;13.30;100.00
41898;BME280;27576;53.366;-1.498;2023-05-08T02:28:15;100371.72;;;13.23;100.00
41898;BME280;27576;53.366;-1.498;2023-05-08T02:30:42;100389.13;;;13.36;100.00
41898;BME280;27576;53.366;-1.498;2023-05-08T02:33:09;100403.84;;;13.42;100.00
41898;BME280;27576;53.366;-1.498;2023-05-08T02:35:36;100374.34;;;13.27;100.00
41898;BME280;27576;53.366;-1.498;2023-05-08T02:38:04;100386.50;;;13.30;100.00
41898;BME280;27576;53.366;-1.498;2023-05-08T02:40:36;100398.66;;;13.42;100.00
41898;BME280;27576;53.366;-1.498;2023-05-08T02:43:03;100363.00;;;13.19;100.00
41898;BME280;27576;53.366;-1.498;2023-05-08T02:45:36;100375.19;;;13.20;100.00
41898;BME280;27576;53.366;-1.498;2023-05-08T02:48:26;100398.66;;;13.33;100.00
41898;BME280;27576;53.366;-1.498;2023-05-08T02:51:00;100386.50;;;13.30;100.00
41898;BME280;27576;53.366;-1.498;2023-05-08T02:53:36;100386.47;;;13.27;100.00
41898;BME280;27576;53.366;-1.498;2023-05-08T02:56:20;100364.75;;;13.17;100.00
41898;BME280;27576;53.366;-1.498;2023-05-08T02:58:59;100374.34;;;13.24;100.00
41898;BME280;27576;53.366;-1.498;2023-05-08T03:01:30;100348.25;;;13.05;100.00
41898;BME280;27576;53.366;-1.498;2023-05-08T03:04:08;100376.91;;;13.18;100.00
41898;BME280;27576;53.366;-1.498;2023-05-08T03:06:40;100364.72;;;13.08;100.00
41898;BME280;27576;53.366;-1.498;2023-05-08T03:09:12;100365.59;;;13.06;100.00
41898;BME280;27576;53.366;-1.498;2023-05-08T03:11:44;100337.81;;;12.92;100.00
41898;BME280;27576;53.366;-1.498;2023-05-08T03:14:15;100357.78;;;12.99;100.00
41898;BME280;27576;53.366;-1.498;2023-05-08T03:16:43;100369.06;;;13.03;100.00
41898;BME280;27576;53.366;-1.498;2023-05-08T03:19:18;100354.28;;;12.93;100.00
41898;BME280;27576;53.366;-1.498;2023-05-08T03:21:46;100356.03;;;12.94;100.00
41898;BME280;27576;53.366;-1.498;2023-05-08T03:24:14;100349.09;;;12.91;100.00
41898;BME280;27576;53.366;-1.498;2023-05-08T03:26:42;100355.19;;;12.93;100.00
41898;BME280;27576;53.366;-1.498;2023-05-08T03:29:08;100355.16;;;12.90;100.00
41898;BME280;27576;53.366;-1.498;2023-05-08T03:31:35;100349.94;;;12.87;100.00
41898;BME280;27576;53.366;-1.498;2023-05-08T03:34:01;100323.94;;;12.73;100.00
41898;BME280;27576;53.366;-1.498;2023-05-08T03:36:29;100361.25;;;12.89;100.00
41898;BME280;27576;53.366;-1.498;2023-05-08T03:38:55;100333.44;;;12.71;100.00
41898;BME280;27576;53.366;-1.498;2023-05-08T03:41:21;100349.94;;;12.89;100.00
41898;BME280;27576;53.366;-1.498;2023-05-08T03:43:48;100334.34;;;12.78;100.00
41898;BME280;27576;53.366;-1.498;2023-05-08T03:46:15;100324.78;;;12.72;100.00
41898;BME280;27576;53.366;-1.498;2023-05-08T03:48:41;100349.06;;;12.84;100.00
41898;BME280;27576;53.366;-1.498;2023-05-08T03:51:07;100337.81;;;12.83;100.00
41898;BME280;27576;53.366;-1.498;2023-05-08T03:53:33;100315.22;;;12.67;100.00
41898;BME280;27576;53.366;-1.498;2023-05-08T03:55:59;100320.44;;;12.70;100.00
41898;BME280;27576;53.366;-1.498;2023-05-08T03:58:33;100301.34;;;12.56;100.00
41898;BME280;27576;53.366;-1.498;2023-05-08T04:01:11;100343.00;;;12.83;100.00
41898;BME280;27576;53.366;-1.498;2023-05-08T04:06:42;100297.88;;;12.55;100.00
41898;BME280;27576;53.366;-1.498;2023-05-08T04:09:17;100334.31;;;12.70;100.00
41898;BME280;27576;53.366;-1.498;2023-05-08T04:11:55;100309.13;;;12.54;100.00
41898;BME280;27576;53.366;-1.498;2023-05-08T04:14:26;100301.31;;;12.51;100.00
41898;BME280;27576;53.366;-1.498;2023-05-08T04:17:01;100303.06;;;12.52;100.00
41898;BME280;27576;53.366;-1.498;2023-05-08T04:19:32;100326.47;;;12.64;100.00
41898;BME280;27576;53.366;-1.498;2023-05-08T04:22:05;100312.59;;;12.55;100.00
41898;BME280;27576;53.366;-1.498;2023-05-08T04:24:33;100321.25;;;12.55;100.00
41898;BME280;27576;53.366;-1.498;2023-05-08T04:27:00;100323.88;;;12.55;100.00
41898;BME280;27576;53.366;-1.498;2023-05-08T04:29:27;100301.28;;;12.40;100.00
41898;BME280;27576;53.366;-1.498;2023-05-08T04:31:52;100309.13;;;12.51;100.00
41898;BME280;27576;53.366;-1.498;2023-05-08T04:34:19;100333.41;;;12.59;100.00
41898;BME280;27576;53.366;-1.498;2023-05-08T04:36:45;100296.09;;;12.48;100.00
41898;BME280;27576;53.366;-1.498;2023-05-08T04:39:12;100311.72;;;12.52;100.00
41898;BME280;27576;53.366;-1.498;2023-05-08T04:41:38;100311.72;;;12.46;100.00
41898;BME280;27576;53.366;-1.498;2023-05-08T04:44:03;100324.75;;;12.59;100.00
41898;BME280;27576;53.366;-1.498;2023-05-08T04:46:29;100300.44;;;12.53;100.00
41898;BME280;27576;53.366;-1.498;2023-05-08T04:48:54;100303.03;;;12.53;100.00
41898;BME280;27576;53.366;-1.498;2023-05-08T04:51:20;100272.69;;;12.39;100.00
41898;BME280;27576;53.366;-1.498;2023-05-08T04:53:45;100283.13;;;12.42;100.00
41898;BME280;27576;53.366;-1.498;2023-05-08T04:56:10;100319.56;;;12.68;100.00
41898;BME280;27576;53.366;-1.498;2023-05-08T04:58:36;100317.84;;;12.71;100.00
41898;BME280;27576;53.366;-1.498;2023-05-08T05:01:02;100301.38;;;12.62;100.00
41898;BME280;27576;53.366;-1.498;2023-05-08T05:03:28;100292.69;;;12.60;100.00
41898;BME280;27576;53.366;-1.498;2023-05-08T05:05:57;100299.66;;;12.74;100.00
41898;BME280;27576;53.366;-1.498;2023-05-08T05:08:23;100297.03;;;12.68;100.00
41898;BME280;27576;53.366;-1.498;2023-05-08T05:10:49;100307.44;;;12.68;100.00
41898;BME280;27576;53.366;-1.498;2023-05-08T05:13:14;100308.31;;;12.73;100.00
41898;BME280;27576;53.366;-1.498;2023-05-08T05:15:41;100291.81;;;12.65;100.00
41898;BME280;27576;53.366;-1.498;2023-05-08T05:18:06;100290.94;;;12.59;100.00
41898;BME280;27576;53.366;-1.498;2023-05-08T05:20:32;100313.50;;;12.72;100.00
41898;BME280;27576;53.366;-1.498;2023-05-08T05:22:57;100277.06;;;12.52;100.00
41898;BME280;27576;53.366;-1.498;2023-05-08T05:25:23;100273.59;;;12.56;100.00
41898;BME280;27576;53.366;-1.498;2023-05-08T05:27:48;100313.53;;;12.73;100.00
41898;BME280;27576;53.366;-1.498;2023-05-08T05:30:14;100280.56;;;12.59;100.00
41898;BME280;27576;53.366;-1.498;2023-05-08T05:32:39;100292.69;;;12.60;100.00
41898;BME280;27576;53.366;-1.498;2023-05-08T05:35:05;100283.16;;;12.59;100.00
41898;BME280;27576;53.366;-1.498;2023-05-08T05:37:30;100301.38;;;12.72;100.00
41898;BME280;27576;53.366;-1.498;2023-05-08T05:39:56;100277.94;;;12.60;100.00
41898;BME280;27576;53.366;-1.498;2023-05-08T05:42:21;100286.63;;;12.65;100.00
41898;BME280;27576;53.366;-1.498;2023-05-08T05:44:47;100270.16;;;12.54;100.00
41898;BME280;27576;53.366;-1.498;2023-05-08T05:47:12;100289.22;;;12.65;100.00
41898;BME280;27576;53.366;-1.498;2023-05-08T05:49:38;100291.81;;;12.59;100.00
41898;BME280;27576;53.366;-1.498;2023-05-08T05:52:07;100303.97;;;12.72;100.00
41898;BME280;27576;53.366;-1.498;2023-05-08T05:54:32;100281.38;;;12.53;100.00
41898;BME280;27576;53.366;-1.498;2023-05-08T05:56:58;100306.59;;;12.69;100.00
41898;BME280;27576;53.366;-1.498;2023-05-08T05:59:23;100310.94;;;12.73;100.00
41898;BME280;27576;53.366;-1.498;2023-05-08T06:01:48;100282.28;;;12.61;100.00
41898;BME280;27576;53.366;-1.498;2023-05-08T06:04:15;100300.53;;;12.73;100.00
41898;BME280;27576;53.366;-1.498;2023-05-08T06:06:40;100267.56;;;12.59;100.00
41898;BME280;27576;53.366;-1.498;2023-05-08T06:09:06;100299.66;;;12.79;100.00
41898;BME280;27576;53.366;-1.498;2023-05-08T06:11:31;100276.22;;;12.65;100.00
41898;BME280;27576;53.366;-1.498;2023-05-08T06:13:56;100291.84;;;12.71;100.00
41898;BME280;27576;53.366;-1.498;2023-05-08T06:16:22;100295.34;;;12.73;100.00
41898;BME280;27576;53.366;-1.498;2023-05-08T06:18:49;100304.88;;;12.77;100.00
41898;BME280;27576;53.366;-1.498;2023-05-08T06:21:14;100272.75;;;12.60;100.00
41898;BME280;27576;53.366;-1.498;2023-05-08T06:23:40;100307.47;;;12.77;100.00
41898;BME280;27576;53.366;-1.498;2023-05-08T06:26:07;100273.63;;;12.65;100.00
41898;BME280;27576;53.366;-1.498;2023-05-08T06:28:32;100277.09;;;12.64;100.00
41898;BME280;27576;53.366;-1.498;2023-05-08T06:30:57;100280.56;;;12.72;100.00
41898;BME280;27576;53.366;-1.498;2023-05-08T06:33:23;100284.94;;;12.73;100.00
41898;BME280;27576;53.366;-1.498;2023-05-08T06:35:48;100278.84;;;12.70;100.00
41898;BME280;27576;53.366;-1.498;2023-05-08T06:38:14;100290.09;;;12.76;100.00
41898;BME280;27576;53.366;-1.498;2023-05-08T06:40:41;100252.84;;;12.58;100.00
41898;BME280;27576;53.366;-1.498;2023-05-08T06:43:07;100257.13;;;12.57;100.00
41898;BME280;27576;53.366;-1.498;2023-05-08T06:45:33;100279.72;;;12.73;100.00
41898;BME280;27576;53.366;-1.498;2023-05-08T06:47:58;100278.81;;;12.68;100.00
41898;BME280;27576;53.366;-1.498;2023-05-08T06:50:23;100257.13;;;12.57;100.00
41898;BME280;27576;53.366;-1.498;2023-05-08T06:52:49;100277.97;;;12.68;100.00
41898;BME280;27576;53.366;-1.498;2023-05-08T06:55:15;100281.44;;;12.68;100.00
41898;BME280;27576;53.366;-1.498;2023-05-08T06:57:40;100285.78;;;12.72;100.00
41898;BME280;27576;53.366;-1.498;2023-05-08T07:00:06;100271.88;;;12.61;100.00
41898;BME280;27576;53.366;-1.498;2023-05-08T07:02:32;100264.94;;;12.57;100.00
41898;BME280;27576;53.366;-1.498;2023-05-08T07:04:57;100258.84;;;12.53;100.00
41898;BME280;27576;53.366;-1.498;2023-05-08T07:07:23;100276.25;;;12.74;100.00
41898;BME280;27576;53.366;-1.498;2023-05-08T07:09:48;100284.03;;;12.76;100.00
41898;BME280;27576;53.366;-1.498;2023-05-08T07:12:13;100276.28;;;12.77;100.00
41898;BME280;27576;53.366;-1.498;2023-05-08T07:14:41;100246.78;;;12.66;100.00
41898;BME280;27576;53.366;-1.498;2023-05-08T07:17:07;100288.38;;;12.85;100.00
41898;BME280;27576;53.366;-1.498;2023-05-08T07:19:34;100262.38;;;12.69;100.00
41898;BME280;27576;53.366;-1.498;2023-05-08T07:22:00;100257.19;;;12.69;100.00
41898;BME280;27576;53.366;-1.498;2023-05-08T07:24:26;100288.41;;;12.88;100.00
41898;BME280;27576;53.366;-1.498;2023-05-08T07:26:51;100257.19;;;12.69;100.00
41898;BME280;27576;53.366;-1.498;2023-05-08T07:29:17;100245.88;;;12.60;100.00
41898;BME280;27576;53.366;-1.498;2023-05-08T07:31:42;100242.41;;;12.56;100.00
41898;BME280;27576;53.366;-1.498;2023-05-08T07:34:10;100277.09;;;12.76;100.00
41898;BME280;27576;53.366;-1.498;2023-05-08T07:36:35;100282.34;;;12.78;100.00
41898;BME280;27576;53.366;-1.498;2023-05-08T07:39:00;100264.13;;;12.70;100.00
41898;BME280;27576;53.366;-1.498;2023-05-08T07:41:26;100259.78;;;12.68;100.00
41898;BME280;27576;53.366;-1.498;2023-05-08T07:43:51;100283.19;;;12.78;100.00
41898;BME280;27576;53.366;-1.498;2023-05-08T07:46:17;100264.94;;;12.65;100.00
41898;BME280;27576;53.366;-1.498;2023-05-08T07:48:42;100275.38;;;12.74;100.00
41898;BME280;27576;53.366;-1.498;2023-05-08T07:51:08;100251.09;;;12.58;100.00
41898;BME280;27576;53.366;-1.498;2023-05-08T07:53:35;100281.47;;;12.79;100.00
41898;BME280;27576;53.366;-1.498;2023-05-08T07:56:01;100260.63;;;12.65;100.00
41898;BME280;27576;53.366;-1.498;2023-05-08T07:58:26;100278.84;;;12.73;100.00
41898;BME280;27576;53.366;-1.498;2023-05-08T08:00:52;100256.31;;;12.67;100.00
41898;BME280;27576;53.366;-1.498;2023-05-08T08:03:18;100258.91;;;12.66;100.00
41898;BME280;27576;53.366;-1.498;2023-05-08T08:05:43;100245.03;;;12.65;100.00
41898;BME280;27576;53.366;-1.498;2023-05-08T08:08:08;100242.41;;;12.65;100.00
41898;BME280;27576;53.366;-1.498;2023-05-08T08:10:34;100254.56;;;12.72;100.00
41898;BME280;27576;53.366;-1.498;2023-05-08T08:12:59;100273.66;;;12.88;100.00
41898;BME280;27576;53.366;-1.498;2023-05-08T08:15:26;100270.22;;;12.89;100.00
41898;BME280;27576;53.366;-1.498;2023-05-08T08:17:53;100250.25;;;12.74;100.00
41898;BME280;27576;53.366;-1.498;2023-05-08T08:20:18;100262.41;;;12.82;100.00
41898;BME280;27576;53.366;-1.498;2023-05-08T08:22:43;100263.28;;;12.85;100.00
41898;BME280;27576;53.366;-1.498;2023-05-08T08:25:09;100255.47;;;12.87;100.00
41898;BME280;27576;53.366;-1.498;2023-05-08T08:27:34;100244.19;;;12.74;100.00
41898;BME280;27576;53.366;-1.498;2023-05-08T08:30:00;100251.13;;;12.80;100.00
41898;BME280;27576;53.366;-1.498;2023-05-08T08:32:25;100262.41;;;12.82;100.00
41898;BME280;27576;53.366;-1.498;2023-05-08T08:34:50;100270.19;;;12.83;100.00
41898;BME280;27576;53.366;-1.498;2023-05-08T08:37:16;100235.47;;;12.61;100.00
41898;BME280;27576;53.366;-1.498;2023-05-08T08:39:41;100217.25;;;12.40;100.00
41898;BME280;27576;53.366;-1.498;2023-05-08T08:42:07;100257.16;;;12.60;100.00
41898;BME280;27576;53.366;-1.498;2023-05-08T08:44:32;100261.47;;;12.50;100.00
41898;BME280;27576;53.366;-1.498;2023-05-08T08:46:58;100232.81;;;12.24;100.00
41898;BME280;27576;53.366;-1.498;2023-05-08T08:49:29;100274.47;;;12.46;100.00
41898;BME280;27576;53.366;-1.498;2023-05-08T08:52:02;100276.16;;;12.36;100.00
41898;BME280;27576;53.366;-1.498;2023-05-08T08:54:29;100279.56;;;12.29;100.00
41898;BME280;27576;53.366;-1.498;2023-05-08T08:57:00;100273.53;;;12.27;100.00
41898;BME280;27576;53.366;-1.498;2023-05-08T08:59:27;100274.38;;;12.23;100.00
41898;BME280;27576;53.366;-1.498;2023-05-08T09:01:56;100265.69;;;12.18;100.00
41898;BME280;27576;53.366;-1.498;2023-05-08T09:04:23;100273.47;;;12.15;100.00
41898;BME280;27576;53.366;-1.498;2023-05-08T09:06:52;100265.66;;;12.13;100.00
41898;BME280;27576;53.366;-1.498;2023-05-08T09:09:17;100257.84;;;12.09;100.00
41898;BME280;27576;53.366;-1.498;2023-05-08T09:11:45;100256.16;;;12.11;100.00
41898;BME280;27576;53.366;-1.498;2023-05-08T09:14:10;100242.25;;;12.06;100.00
41898;BME280;27576;53.366;-1.498;2023-05-08T09:16:36;100244.88;;;12.13;100.00
41898;BME280;27576;53.366;-1.498;2023-05-08T09:19:02;100264.00;;;12.34;100.00
41898;BME280;27576;53.366;-1.498;2023-05-08T09:21:28;100255.38;;;12.39;100.00
41898;BME280;27576;53.366;-1.498;2023-05-08T09:23:58;100260.56;;;12.41;100.00
41898;BME280;27576;53.366;-1.498;2023-05-08T09:26:40;100251.06;;;12.47;100.00
41898;BME280;27576;53.366;-1.498;2023-05-08T09:31:42;100243.28;;;12.64;100.00
41898;BME280;27576;53.366;-1.498;2023-05-08T09:34:10;100245.06;;;12.79;100.00
41898;BME280;27576;53.366;-1.498;2023-05-08T09:36:37;100200.84;;;12.58;100.00
41898;BME280;27576;53.366;-1.498;2023-05-08T09:39:11;100230.31;;;12.83;100.00
41898;BME280;27576;53.366;-1.498;2023-05-08T09:41:37;100226.84;;;12.84;100.00
41898;BME280;27576;53.366;-1.498;2023-05-08T09:44:04;100229.47;;;12.90;100.00
41898;BME280;27576;53.366;-1.498;2023-05-08T09:46:31;100224.25;;;12.91;100.00
41898;BME280;27576;53.366;-1.498;2023-05-08T09:49:00;100206.06;;;12.85;100.00
41898;BME280;27576;53.366;-1.498;2023-05-08T09:51:27;100216.44;;;12.96;100.00
41898;BME280;27576;53.366;-1.498;2023-05-08T09:53:54;100213.00;;;13.01;100.00
41898;BME280;27576;53.366;-1.498;2023-05-08T09:56:37;100215.59;;;13.09;100.00
41898;BME280;27576;53.366;-1.498;2023-05-08T09:59:26;100224.25;;;13.19;100.00
41898;BME280;27576;53.366;-1.498;2023-05-08T10:01:52;100213.84;;;13.20;100.00
41898;BME280;27576;53.366;-1.498;2023-05-08T10:04:35;100211.25;;;13.17;100.00
41898;BME280;27576;53.366;-1.498;2023-05-08T10:07:01;100221.69;;;13.26;100.00
41898;BME280;27576;53.366;-1.498;2023-05-08T10:09:26;100201.69;;;13.22;100.00
41898;BME280;27576;53.366;-1.498;2023-05-08T10:11:53;100219.91;;;13.39;100.00
41898;BME280;27576;53.366;-1.498;2023-05-08T10:14:20;100167.03;;;13.20;100.00
41898;BME280;27576;53.366;-1.498;2023-05-08T10:16:48;100177.44;;;13.40;100.00
41898;BME280;27576;53.366;-1.498;2023-05-08T10:19:15;100210.28;;;13.67;100.00
41898;BME280;27576;53.366;-1.498;2023-05-08T10:21:45;100205.94;;;13.80;100.00
41898;BME280;27576;53.366;-1.498;2023-05-08T10:24:37;100203.25;;;13.94;100.00
41898;BME280;27576;53.366;-1.498;2023-05-08T10:27:18;100199.75;;;14.04;100.00
41898;BME280;27576;53.366;-1.498;2023-05-08T10:29:46;100195.38;;;14.11;100.00
41898;BME280;27576;53.366;-1.498;2023-05-08T10:32:18;100167.66;;;13.97;100.00
41898;BME280;27576;53.366;-1.498;2023-05-08T10:34:45;100191.91;;;14.12;100.00
41898;BME280;27576;53.366;-1.498;2023-05-08T10:37:14;100166.78;;;13.94;100.00
41898;BME280;27576;53.366;-1.498;2023-05-08T10:39:40;100190.19;;;14.08;100.00
41898;BME280;27576;53.366;-1.498;2023-05-08T10:42:07;100170.28;;;13.96;100.00
41898;BME280;27576;53.366;-1.498;2023-05-08T10:44:32;100194.47;;;14.18;100.00
41898;BME280;27576;53.366;-1.498;2023-05-08T10:49:48;100174.38;;;14.37;100.00
41898;BME280;27576;53.366;-1.498;2023-05-08T10:52:35;100181.28;;;14.52;100.00
41898;BME280;27576;53.366;-1.498;2023-05-08T10:55:19;100193.31;;;14.68;100.00
41898;BME280;27576;53.366;-1.498;2023-05-08T10:58:09;100199.38;;;14.71;100.00
41898;BME280;27576;53.366;-1.498;2023-05-08T11:03:29;100196.00;;;14.57;100.00
41898;BME280;27576;53.366;-1.498;2023-05-08T11:05:56;100177.78;;;14.48;100.00
41898;BME280;27576;53.366;-1.498;2023-05-08T11:08:25;100164.81;;;14.39;100.00
41898;BME280;27576;53.366;-1.498;2023-05-08T11:13:44;100179.53;;;14.49;100.00
41898;BME280;27576;53.366;-1.498;2023-05-08T11:16:11;100165.72;;;14.30;100.00
41898;BME280;27576;53.366;-1.498;2023-05-08T11:18:36;100188.25;;;14.43;100.00
41898;BME280;27576;53.366;-1.498;2023-05-08T11:21:03;100190.91;;;14.36;100.00
41898;BME280;27576;53.366;-1.498;2023-05-08T11:23:33;100169.28;;;14.14;100.00
41898;BME280;27576;53.366;-1.498;2023-05-08T11:26:11;100176.25;;;14.16;100.00
41898;BME280;27576;53.366;-1.498;2023-05-08T11:28:55;100187.50;;;14.18;100.00
41898;BME280;27576;53.366;-1.498;2023-05-08T11:31:21;100168.47;;;14.06;100.00
41898;BME280;27576;53.366;-1.498;2023-05-08T11:33:47;100180.66;;;14.02;100.00
41898;BME280;27576;53.366;-1.498;2023-05-08T11:36:17;100169.41;;;13.97;100.00
41898;BME280;27576;53.366;-1.498;2023-05-08T11:39:09;100184.13;;;14.07;100.00
41898;BME280;27576;53.366;-1.498;2023-05-08T11:41:37;100185.84;;;14.02;100.00
41898;BME280;27576;53.366;-1.498;2023-05-08T11:46:56;100191.09;;;14.00;100.00
41898;BME280;27576;53.366;-1.498;2023-05-08T11:49:24;100183.25;;;14.02;100.00
41898;BME280;27576;53.366;-1.498;2023-05-08T11:51:51;100165.91;;;13.95;100.00
41898;BME280;27576;53.366;-1.498;2023-05-08T11:54:22;100170.25;;;14.00;100.00
41898;BME280;27576;53.366;-1.498;2023-05-08T11:56:49;100175.53;;;13.88;100.00
41898;BME280;27576;53.366;-1.498;2023-05-08T11:59:15;100185.91;;;13.96;100.00
41898;BME280;27576;53.366;-1.498;2023-05-08T12:01:41;100185.94;;;13.91;100.00
41898;BME280;27576;53.366;-1.498;2023-05-08T12:04:08;100194.56;;;13.98;100.00
41898;BME280;27576;53.366;-1.498;2023-05-08T12:06:35;100143.44;;;13.80;100.00
41898;BME280;27576;53.366;-1.498;2023-05-08T12:09:12;100152.94;;;13.89;100.00
41898;BME280;27576;53.366;-1.498;2023-05-08T12:11:37;100176.31;;;14.03;100.00
41898;BME280;27576;53.366;-1.498;2023-05-08T12:14:05;100189.31;;;14.09;100.00
41898;BME280;27576;53.366;-1.498;2023-05-08T12:16:37;100160.72;;;13.95;100.00
41898;BME280;27576;53.366;-1.498;2023-05-08T12:19:03;100174.56;;;14.05;100.00
41898;BME280;27576;53.366;-1.498;2023-05-08T12:21:29;100160.75;;;13.92;100.00
41898;BME280;27576;53.366;-1.498;2023-05-08T12:23:55;100172.00;;;13.91;100.00
41898;BME280;27576;53.366;-1.498;2023-05-08T12:26:20;100170.25;;;13.94;100.00
41898;BME280;27576;53.366;-1.498;2023-05-08T12:28:53;100184.13;;;14.01;100.00
41898;BME280;27576;53.366;-1.498;2023-05-08T12:31:19;100178.09;;;13.90;100.00
41898;BME280;27576;53.366;-1.498;2023-05-08T12:33:44;100182.44;;;13.91;100.00
41898;BME280;27576;53.366;-1.498;2023-05-08T12:36:10;100153.84;;;13.77;100.00
41898;BME280;27576;53.366;-1.498;2023-05-08T12:38:35;100145.16;;;13.78;100.00
41898;BME280;27576;53.366;-1.498;2023-05-08T12:41:01;100172.84;;;13.97;100.00
41898;BME280;27576;53.366;-1.498;2023-05-08T12:43:32;100172.84;;;13.97;100.00
41898;BME280;27576;53.366;-1.498;2023-05-08T12:45:58;100165.06;;;13.93;100.00
41898;BME280;27576;53.366;-1.498;2023-05-08T12:48:24;100130.41;;;13.79;100.00
41898;BME280;27576;53.366;-1.498;2023-05-08T12:50:51;100126.06;;;13.84;100.00
41898;BME280;27576;53.366;-1.498;2023-05-08T12:53:18;100145.03;;;14.04;100.00
41898;BME280;27576;53.366;-1.498;2023-05-08T12:55:55;100119.88;;;14.00;100.00
41898;BME280;27576;53.366;-1.498;2023-05-08T12:58:39;100128.50;;;14.10;100.00
41898;BME280;27576;53.366;-1.498;2023-05-08T13:01:11;100144.06;;;14.27;100.00
41898;BME280;27576;53.366;-1.498;2023-05-08T13:03:38;100147.50;;;14.29;100.00